< < Back
Terminal Aerodrome Forecast


Current Version              Previous Versions:   1  2  3  4  5  6  7  8  9  

Terminal Aerodrome Forecast

459
FTUS42 KFFC 221100
TAFAHN
TAF
KAHN 221126Z 2212/2312 28003KT P6SM FEW250
      TEMPO 2212/2213 6SM BR FEW010
     FM221500 29005KT P6SM FEW040
     FM221700 31007KT P6SM SCT050
     FM230100 28004KT P6SM FEW070 SCT250=

Latest METAR

535
SAUS70 KWBC 221100 RRA
MTRAHN
METAR KAHN 221051Z AUTO 00000KT 8SM CLR 22/21 A3007 RMK AO2 SLP176
T02170206


USA.gov is the U.S. government's official web portal to all federal, state and local government web resources and services.